Time;durP1;ratioP1;P1;durP2;ratioP2;P2;SDS_P1;SDS_P2;PMS_P1;PMS_P2;Temp;Humidity;BMP_temperature;BMP_pressure;BME280_temperature;BME280_humidity;BME280_pressure;Samples;Min_cycle;Max_cycle;Signal;HPM_P1;HPM_P2
2021/05/10 00:00:10;;;;;;;8.65;5.07;;;19.00;78.60;;;;;;5107025;28;20365;-68
2021/05/10 00:02:38;;;;;;;6.78;3.90;;;19.20;78.80;;;;;;5106831;28;20510;-74
2021/05/10 00:05:05;;;;;;;3.80;3.08;;;19.40;76.80;;;;;;5106912;28;20475;-69
2021/05/10 00:07:33;;;;;;;4.65;3.20;;;19.50;76.50;;;;;;5103917;28;20019;-69
2021/05/10 00:10:01;;;;;;;4.28;3.42;;;19.70;76.50;;;;;;5105685;28;20431;-68
2021/05/10 00:12:28;;;;;;;4.15;3.00;;;19.90;76.30;;;;;;5107160;28;20226;-62
2021/05/10 00:14:55;;;;;;;5.25;2.72;;;20.10;74.30;;;;;;5106898;28;20387;-63
2021/05/10 00:17:26;;;;;;;4.30;2.60;;;20.20;74.50;;;;;;5107288;28;20102;-75
2021/05/10 00:19:56;;;;;;;6.63;3.10;;;20.30;73.00;;;;;;5106939;28;20016;-61
2021/05/10 00:22:26;;;;;;;17.40;4.40;;;20.20;72.70;;;;;;5106840;28;20395;-74
2021/05/10 00:24:56;;;;;;;3.88;2.55;;;20.40;71.90;;;;;;5104261;28;20016;-75
2021/05/10 00:27:26;;;;;;;4.95;2.63;;;20.50;70.20;;;;;;5107222;28;20372;-62
2021/05/10 00:29:53;;;;;;;7.43;2.25;;;20.70;71.40;;;;;;5106697;28;20020;-61
2021/05/10 00:32:21;;;;;;;6.15;2.90;;;20.90;70.50;;;;;;5106737;28;20100;-74
2021/05/10 00:34:49;;;;;;;4.18;1.92;;;21.10;68.20;;;;;;5106258;28;20125;-75
2021/05/10 00:37:17;;;;;;;159.50;21.55;;;21.10;66.90;;;;;;5104632;28;20015;-69
2021/05/10 00:39:44;;;;;;;8.10;2.30;;;21.30;69.10;;;;;;5088105;28;20543;-62
2021/05/10 00:42:11;;;;;;;4.63;1.80;;;21.50;68.50;;;;;;5105914;28;20359;-61
2021/05/10 00:44:38;;;;;;;2.78;1.70;;;21.70;67.60;;;;;;5104915;28;20303;-63
2021/05/10 00:47:06;;;;;;;3.95;1.67;;;21.80;66.30;;;;;;5106898;28;20027;-63
2021/05/10 00:49:33;;;;;;;4.65;2.42;;;21.70;64.20;;;;;;5103749;28;20073;-61
2021/05/10 00:52:00;;;;;;;3.70;2.28;;;21.90;64.10;;;;;;5106718;28;20042;-74
2021/05/10 00:54:27;;;;;;;2.88;1.90;;;22.10;63.80;;;;;;5106555;28;20016;-61
2021/05/10 00:56:55;;;;;;;1.75;1.30;;;22.10;63.50;;;;;;5104816;28;20075;-74
2021/05/10 00:59:22;;;;;;;1.77;1.10;;;22.30;61.50;;;;;;5106882;28;20020;-63
2021/05/10 01:01:50;;;;;;;1.77;1.00;;;22.40;61.10;;;;;;5111101;28;20023;-68
2021/05/10 01:04:17;;;;;;;1.95;1.35;;;22.60;60.90;;;;;;5110395;28;20023;-63
2021/05/10 01:06:44;;;;;;;3.22;1.08;;;22.70;57.50;;;;;;5110879;28;20024;-74
2021/05/10 01:09:12;;;;;;;1.45;1.15;;;22.80;57.50;;;;;;5109575;28;20054;-63
2021/05/10 01:11:39;;;;;;;2.05;1.08;;;22.80;56.50;;;;;;5109027;28;20620;-62
2021/05/10 01:14:06;;;;;;;2.15;1.58;;;22.70;56.30;;;;;;5091176;28;20428;-62
2021/05/10 01:16:34;;;;;;;2.53;1.95;;;22.90;55.50;;;;;;5107911;28;20024;-69
2021/05/10 01:19:01;;;;;;;3.92;2.00;;;23.10;56.50;;;;;;5107049;28;20039;-62
2021/05/10 01:21:30;;;;;;;2.70;1.20;;;23.00;56.90;;;;;;5108734;28;20042;-72
2021/05/10 01:23:58;;;;;;;2.90;1.55;;;23.10;55.90;;;;;;5115305;22;20101;-62
2021/05/10 01:26:25;;;;;;;2.28;2.00;;;23.10;55.60;;;;;;5110316;28;20020;-65
2021/05/10 01:28:53;;;;;;;4.88;3.65;;;23.20;57.10;;;;;;5110350;28;20329;-62
2021/05/10 01:31:20;;;;;;;12.52;2.65;;;23.30;58.10;;;;;;5110294;28;20016;-70
2021/05/10 01:33:48;;;;;;;9.77;1.90;;;23.50;56.70;;;;;;5110605;28;20027;-70
2021/05/10 01:36:15;;;;;;;2.55;1.20;;;23.50;56.40;;;;;;5108989;28;20027;-75
2021/05/10 01:38:42;;;;;;;5.07;2.83;;;23.50;56.90;;;;;;5110430;28;20028;-70
2021/05/10 01:41:09;;;;;;;3.78;1.50;;;23.60;55.50;;;;;;5110821;28;20030;-75
2021/05/10 01:43:37;;;;;;;1.80;1.25;;;23.70;56.20;;;;;;5107868;28;20027;-68
2021/05/10 01:46:04;;;;;;;2.40;0.85;;;23.60;54.00;;;;;;5109847;28;20024;-70
2021/05/10 01:48:31;;;;;;;1.50;0.98;;;23.60;53.90;;;;;;5109945;28;20517;-65
2021/05/10 01:50:58;;;;;;;1.52;1.00;;;23.50;55.70;;;;;;5110006;28;20026;-66
2021/05/10 01:53:26;;;;;;;2.70;0.98;;;23.60;56.00;;;;;;5109704;28;20421;-70
2021/05/10 01:55:53;;;;;;;4.13;1.55;;;23.80;56.10;;;;;;5110060;28;20026;-65
2021/05/10 01:58:20;;;;;;;21.98;4.35;;;23.90;56.70;;;;;;5109839;28;20106;-74
2021/05/10 02:00:49;;;;;;;2.47;1.10;;;23.90;55.00;;;;;;5109701;28;20020;-75
2021/05/10 02:03:20;;;;;;;5.72;3.83;;;24.10;55.00;;;;;;5106837;28;20329;-75
2021/05/10 02:05:51;;;;;;;1.40;1.10;;;24.30;55.00;;;;;;5109515;28;20022;-67
2021/05/10 02:08:19;;;;;;;2.83;2.38;;;24.40;54.10;;;;;;5107346;28;20026;-66
2021/05/10 02:10:49;;;;;;;2.67;1.17;;;24.40;54.20;;;;;;5108652;28;20060;-65
2021/05/10 02:13:26;;;;;;;4.45;1.15;;;24.30;54.00;;;;;;5106867;28;20034;-75
2021/05/10 02:15:56;;;;;;;3.40;1.30;;;24.40;54.70;;;;;;5109482;28;20020;-70
2021/05/10 02:18:32;;;;;;;1.88;1.10;;;24.50;54.50;;;;;;5109560;28;20551;-70
2021/05/10 02:20:59;;;;;;;2.10;1.10;;;24.60;54.20;;;;;;5109514;28;20030;-64
2021/05/10 02:23:33;;;;;;;2.28;1.63;;;24.70;53.40;;;;;;5109465;28;20116;-69
2021/05/10 02:26:02;;;;;;;3.15;1.00;;;24.80;53.30;;;;;;5107181;28;20072;-62
2021/05/10 02:28:31;;;;;;;2.97;1.00;;;24.70;51.80;;;;;;5109047;28;20712;-75
2021/05/10 02:31:00;;;;;;;7.90;1.80;;;24.60;53.10;;;;;;4400524;28;9999990;-65
2021/05/10 02:33:33;;;;;;;25.15;5.72;;;24.60;52.50;;;;;;5102950;28;20027;-74
2021/05/10 02:36:00;;;;;;;2.70;1.17;;;24.80;53.10;;;;;;5095928;28;20745;-70
2021/05/10 02:38:28;;;;;;;38.65;5.10;;;25.30;50.70;;;;;;5104773;28;20024;-64
2021/05/10 02:40:56;;;;;;;39.25;5.53;;;25.60;51.20;;;;;;5102595;28;20034;-63
2021/05/10 02:43:25;;;;;;;2.33;1.02;;;25.90;48.50;;;;;;5101392;28;20020;-64
2021/05/10 02:45:53;;;;;;;0.50;0.50;;;26.10;46.10;;;;;;5105348;28;20040;-75
2021/05/10 02:48:21;;;;;;;3.13;0.40;;;26.10;45.90;;;;;;5103382;28;20036;-71
2021/05/10 02:50:48;;;;;;;3.90;1.20;;;25.70;44.90;;;;;;5094314;28;20099;-66
2021/05/10 02:53:16;;;;;;;3.28;1.20;;;25.40;43.90;;;;;;5099006;28;20395;-71
2021/05/10 02:55:43;;;;;;;0.90;0.47;;;25.30;45.30;;;;;;5097561;28;20050;-76
2021/05/10 02:58:11;;;;;;;9.15;1.48;;;25.20;44.50;;;;;;5102404;28;20015;-69
2021/05/10 03:00:38;;;;;;;0.82;0.60;;;25.00;46.00;;;;;;5104323;28;20404;-67
2021/05/10 03:03:05;;;;;;;1.00;0.55;;;25.10;45.50;;;;;;5092875;28;20036;-76
2021/05/10 03:05:33;;;;;;;2.08;0.68;;;25.00;45.30;;;;;;5100650;28;20043;-69
2021/05/10 03:08:02;;;;;;;4.93;0.82;;;25.10;44.20;;;;;;5097511;28;20034;-66
2021/05/10 03:10:29;;;;;;;2.42;0.70;;;25.10;44.00;;;;;;5104032;28;20016;-75
2021/05/10 03:12:56;;;;;;;1.80;0.50;;;24.80;44.70;;;;;;5105672;28;20077;-63
2021/05/10 03:15:24;;;;;;;1.00;0.70;;;24.80;44.80;;;;;;5102663;28;20019;-68
2021/05/10 03:17:52;;;;;;;1.17;0.47;;;24.70;44.30;;;;;;5094754;28;20027;-73
2021/05/10 03:20:21;;;;;;;9.35;1.70;;;24.60;44.30;;;;;;5096627;28;20028;-75
2021/05/10 03:22:51;;;;;;;2.92;0.82;;;24.60;44.10;;;;;;5103691;28;20095;-73
2021/05/10 03:25:20;;;;;;;1.13;0.50;;;24.70;45.70;;;;;;5100162;28;20045;-68
2021/05/10 03:27:48;;;;;;;1.33;0.60;;;24.60;44.70;;;;;;5104236;28;20024;-74
2021/05/10 03:30:19;;;;;;;1.05;0.80;;;24.50;44.80;;;;;;5103498;28;20073;-73
2021/05/10 03:32:47;;;;;;;2.38;0.80;;;24.60;44.50;;;;;;5092568;28;20492;-67
2021/05/10 03:35:16;;;;;;;1.67;0.55;;;24.40;44.20;;;;;;5093673;28;20365;-68
2021/05/10 03:37:44;;;;;;;1.52;1.00;;;24.30;45.10;;;;;;5102028;28;20043;-74
2021/05/10 03:40:14;;;;;;;1.83;0.60;;;24.30;44.10;;;;;;5097885;28;20035;-63
2021/05/10 03:42:42;;;;;;;1.73;0.50;;;24.30;45.00;;;;;;5098841;28;20028;-64
2021/05/10 03:45:11;;;;;;;2.72;0.73;;;24.60;44.70;;;;;;5103356;28;20016;-73
2021/05/10 03:47:42;;;;;;;1.08;0.52;;;24.70;44.40;;;;;;5103851;28;20019;-64
2021/05/10 03:50:20;;;;;;;1.08;0.82;;;24.80;44.40;;;;;;5104812;28;20020;-69
2021/05/10 03:52:49;;;;;;;0.82;0.52;;;24.80;44.80;;;;;;5098896;28;20544;-73
2021/05/10 03:55:18;;;;;;;2.42;0.60;;;24.80;44.30;;;;;;5103052;28;20062;-74
2021/05/10 03:57:46;;;;;;;1.65;0.50;;;24.70;44.00;;;;;;5103332;28;20042;-69
2021/05/10 04:00:16;;;;;;;1.38;0.63;;;24.60;44.40;;;;;;5104082;28;20030;-62
2021/05/10 04:02:44;;;;;;;0.95;0.40;;;24.40;44.30;;;;;;5104688;28;20027;-63
2021/05/10 04:15:41;;;;;;;1.05;0.60;;;24.40;44.50;;;;;;5091619;28;20388;-64
2021/05/10 04:18:08;;;;;;;1.23;0.70;;;24.40;44.50;;;;;;5096533;28;20369;-68
2021/05/10 04:20:36;;;;;;;0.88;0.70;;;24.20;45.10;;;;;;5104109;28;20055;-72
2021/05/10 04:23:03;;;;;;;2.60;0.80;;;24.30;45.70;;;;;;5103545;28;20048;-62
2021/05/10 04:25:30;;;;;;;1.60;0.60;;;24.40;45.70;;;;;;5103935;28;20033;-71
2021/05/10 04:27:57;;;;;;;0.80;0.80;;;24.50;45.40;;;;;;5103962;28;20015;-63
2021/05/10 04:30:25;;;;;;;0.73;0.50;;;24.60;45.90;;;;;;5095719;28;20426;-64
2021/05/10 04:32:58;;;;;;;1.08;0.80;;;24.60;45.30;;;;;;5104095;28;20092;-70
2021/05/10 04:35:24;;;;;;;;;;;24.60;45.50;;;;;;5101963;28;20020;-63
2021/05/10 04:37:52;;;;;;;1.55;1.00;;;24.50;45.40;;;;;;5107967;28;19981;-63
2021/05/10 04:40:19;;;;;;;0.63;0.47;;;24.40;45.40;;;;;;5107973;28;20040;-64
2021/05/10 04:42:48;;;;;;;1.60;0.88;;;24.40;46.50;;;;;;5106083;28;20031;-70
2021/05/10 04:45:16;;;;;;;1.23;0.70;;;24.20;45.80;;;;;;5107437;28;20019;-63
2021/05/10 04:47:46;;;;;;;2.50;0.73;;;24.10;45.80;;;;;;5107298;28;20419;-71
2021/05/10 04:50:15;;;;;;;0.98;0.60;;;24.10;45.70;;;;;;5107834;28;20326;-71
2021/05/10 04:52:43;;;;;;;0.90;0.60;;;24.10;46.00;;;;;;5101741;28;20032;-73
2021/05/10 04:55:12;;;;;;;1.13;0.65;;;24.30;46.00;;;;;;5107800;28;20192;-65
2021/05/10 04:57:39;;;;;;;0.77;0.55;;;24.40;44.90;;;;;;5100397;28;20073;-63
2021/05/10 05:00:09;;;;;;;2.08;0.70;;;24.40;45.50;;;;;;5086999;28;20475;-70
2021/05/10 05:02:37;;;;;;;1.83;0.57;;;24.40;45.70;;;;;;5100768;28;20217;-70
2021/05/10 05:05:06;;;;;;;1.35;0.70;;;24.20;45.10;;;;;;5107354;28;20043;-71
2021/05/10 05:07:33;;;;;;;1.02;0.63;;;23.80;46.70;;;;;;5099537;28;20016;-64
2021/05/10 05:10:01;;;;;;;1.70;0.70;;;23.60;48.00;;;;;;5100299;28;20526;-65
2021/05/10 05:12:28;;;;;;;3.35;2.45;;;23.50;48.00;;;;;;5093402;28;20028;-64
2021/05/10 05:14:55;;;;;;;2.15;0.90;;;23.70;48.40;;;;;;5092424;28;20019;-62
2021/05/10 05:17:23;;;;;;;0.85;0.75;;;24.00;47.60;;;;;;5088800;28;20028;-63
2021/05/10 05:19:50;;;;;;;1.48;0.77;;;24.30;46.50;;;;;;5094886;28;20492;-71
2021/05/10 05:22:17;;;;;;;3.70;0.80;;;24.20;46.10;;;;;;5093183;28;20068;-72
2021/05/10 05:24:44;;;;;;;3.00;0.95;;;23.90;46.80;;;;;;5091674;28;20027;-65
2021/05/10 05:27:12;;;;;;;0.88;0.70;;;23.60;48.10;;;;;;5078932;28;20028;-69
2021/05/10 05:29:39;;;;;;;2.17;1.10;;;23.30;49.30;;;;;;5092397;28;20095;-74
2021/05/10 05:32:07;;;;;;;1.60;0.90;;;23.10;50.30;;;;;;5092108;28;20036;-62
2021/05/10 05:34:34;;;;;;;1.80;0.80;;;22.90;49.60;;;;;;5095584;28;20504;-62
2021/05/10 05:37:01;;;;;;;1.60;0.95;;;23.00;49.60;;;;;;5095713;28;20019;-64
2021/05/10 05:39:29;;;;;;;1.00;0.90;;;23.60;48.20;;;;;;5093626;28;20255;-65
2021/05/10 05:41:56;;;;;;;2.38;0.82;;;24.10;46.50;;;;;;5086193;28;20081;-62
2021/05/10 05:44:23;;;;;;;1.90;0.60;;;24.40;46.20;;;;;;5095917;28;20061;-69
2021/05/10 05:46:58;;;;;;;3.17;0.50;;;24.60;45.60;;;;;;5098716;28;20020;-64
2021/05/10 05:49:26;;;;;;;0.77;0.60;;;24.70;45.30;;;;;;5096874;28;20442;-64
2021/05/10 05:51:53;;;;;;;1.92;0.80;;;24.80;46.10;;;;;;5092936;28;20024;-68
2021/05/10 05:54:20;;;;;;;1.50;0.73;;;24.90;45.70;;;;;;5092582;28;20026;-68
2021/05/10 05:56:48;;;;;;;0.73;0.47;;;24.80;45.60;;;;;;5092139;28;20028;-70
2021/05/10 05:59:15;;;;;;;2.38;0.77;;;24.60;46.00;;;;;;5099435;28;20019;-65
2021/05/10 06:01:42;;;;;;;1.73;0.60;;;24.00;47.20;;;;;;5097370;28;20401;-70
2021/05/10 06:04:09;;;;;;;0.82;0.65;;;23.60;47.90;;;;;;5092519;28;20016;-70
2021/05/10 06:06:37;;;;;;;0.65;0.50;;;23.50;48.80;;;;;;5093786;28;20028;-65
2021/05/10 06:09:07;;;;;;;2.45;1.48;;;23.60;48.70;;;;;;5092372;28;20036;-69
2021/05/10 06:11:35;;;;;;;5.32;1.00;;;23.60;49.30;;;;;;5094971;28;20077;-69
2021/05/10 06:14:02;;;;;;;10.98;2.05;;;23.50;50.00;;;;;;5098583;28;20470;-69
2021/05/10 06:16:33;;;;;;;6.85;1.75;;;23.40;51.10;;;;;;5092584;28;20024;-63
2021/05/10 06:19:01;;;;;;;4.20;1.35;;;23.60;49.40;;;;;;5089005;28;20139;-72
2021/05/10 06:21:28;;;;;;;6.68;1.80;;;23.40;50.40;;;;;;5094255;28;20495;-65
2021/05/10 06:23:55;;;;;;;4.50;0.75;;;23.40;49.20;;;;;;5093792;28;20054;-64
2021/05/10 06:26:23;;;;;;;3.75;0.93;;;23.60;47.80;;;;;;5094675;28;20021;-74
2021/05/10 06:28:50;;;;;;;4.15;0.90;;;23.60;48.10;;;;;;5092933;28;20027;-70
2021/05/10 06:31:17;;;;;;;4.05;1.17;;;23.40;49.40;;;;;;5089740;28;20038;-70
2021/05/10 06:33:45;;;;;;;4.97;1.52;;;23.10;51.10;;;;;;5094639;28;20031;-63
2021/05/10 06:36:12;;;;;;;9.20;2.17;;;23.10;50.50;;;;;;5078829;28;20089;-72
2021/05/10 06:38:39;;;;;;;12.23;2.00;;;23.40;50.20;;;;;;5093974;28;20571;-73
2021/05/10 06:41:06;;;;;;;7.55;1.52;;;23.60;50.00;;;;;;5077048;28;20107;-66
2021/05/10 06:43:34;;;;;;;3.90;1.50;;;23.70;49.80;;;;;;5090556;28;20036;-69
2021/05/10 06:46:01;;;;;;;8.73;1.83;;;23.40;51.40;;;;;;5095400;28;20024;-67
2021/05/10 06:48:34;;;;;;;6.30;1.85;;;23.30;51.90;;;;;;5103715;28;20024;-72
2021/05/10 06:51:01;;;;;;;5.28;1.52;;;23.20;53.00;;;;;;5082722;28;20027;-74
2021/05/10 06:53:29;;;;;;;7.78;1.77;;;23.10;53.50;;;;;;5084891;28;20027;-70
2021/05/10 06:55:57;;;;;;;3.92;2.10;;;23.00;53.60;;;;;;5092157;28;20492;-70
2021/05/10 06:58:24;;;;;;;8.38;2.38;;;22.90;53.70;;;;;;5093734;28;20080;-72
2021/05/10 07:00:54;;;;;;;5.47;2.40;;;22.50;54.90;;;;;;5096690;28;20035;-73
2021/05/10 07:03:23;;;;;;;9.77;3.92;;;22.00;56.10;;;;;;5092754;28;20031;-66
2021/05/10 07:05:50;;;;;;;7.45;2.20;;;21.60;57.90;;;;;;5095625;28;20858;-66
2021/05/10 07:08:19;;;;;;;11.65;2.47;;;21.20;59.20;;;;;;5094994;28;20491;-73
2021/05/10 07:10:50;;;;;;;5.30;2.63;;;20.80;60.90;;;;;;5097768;28;20024;-68
2021/05/10 07:13:18;;;;;;;10.98;2.13;;;20.30;62.30;;;;;;5085858;28;20483;-67
2021/05/10 07:15:45;;;;;;;8.30;1.80;;;20.00;63.20;;;;;;5082777;28;20529;-64
2021/05/10 07:18:14;;;;;;;10.07;1.60;;;19.80;63.70;;;;;;5097126;28;20383;-66
2021/05/10 07:20:46;;;;;;;5.78;1.60;;;19.70;64.10;;;;;;5099275;28;20555;-75
2021/05/10 07:23:14;;;;;;;;;;;19.60;64.20;;;;;;5095318;28;20055;-63
2021/05/10 07:25:48;;;;;;;5.35;1.80;;;19.40;64.10;;;;;;5079680;28;19924;-71
2021/05/10 07:28:17;;;;;;;10.52;3.40;;;19.20;64.90;;;;;;5078294;28;20087;-71
2021/05/10 07:30:46;;;;;;;5.32;1.52;;;19.00;64.80;;;;;;5089748;28;20499;-64
2021/05/10 07:33:14;;;;;;;6.75;2.33;;;18.90;65.60;;;;;;5076313;28;20032;-64
2021/05/10 07:35:41;;;;;;;6.65;3.38;;;18.80;66.20;;;;;;5083547;28;20030;-64
2021/05/10 07:38:09;;;;;;;6.75;2.25;;;18.60;66.30;;;;;;5088095;28;20024;-64
2021/05/10 07:40:38;;;;;;;9.02;3.03;;;18.60;66.50;;;;;;5085107;28;20031;-64
2021/05/10 07:43:05;;;;;;;6.20;2.40;;;18.50;67.50;;;;;;5063360;28;20497;-70
2021/05/10 07:45:34;;;;;;;7.50;2.08;;;18.50;67.80;;;;;;5082995;28;20020;-72
2021/05/10 07:48:01;;;;;;;5.47;1.60;;;18.40;68.00;;;;;;5086899;28;20027;-63
2021/05/10 07:50:30;;;;;;;13.00;4.70;;;18.40;67.60;;;;;;5083950;28;20114;-62
2021/05/10 07:52:57;;;;;;;5.43;2.15;;;18.30;68.00;;;;;;5087559;28;20027;-73
2021/05/10 07:55:25;;;;;;;5.50;1.92;;;18.20;68.40;;;;;;5085603;28;20143;-71
2021/05/10 07:57:53;;;;;;;9.73;7.22;;;18.20;68.80;;;;;;5083895;28;20135;-62
2021/05/10 08:00:36;;;;;;;7.47;4.10;;;18.10;69.10;;;;;;5086087;28;20392;-71
2021/05/10 08:03:07;;;;;;;;;;;18.10;69.60;;;;;;5086605;28;20038;-63
2021/05/10 08:05:39;;;;;;;34.65;24.33;;;18.00;70.40;;;;;;5086263;28;19912;-70
2021/05/10 08:08:07;;;;;;;4.85;3.25;;;17.90;71.00;;;;;;5091625;28;20027;-70
2021/05/10 08:10:35;;;;;;;5.78;3.38;;;17.80;71.40;;;;;;5088717;28;20037;-62
2021/05/10 08:13:02;;;;;;;8.07;4.18;;;17.80;71.80;;;;;;5082934;28;20020;-69
2021/05/10 08:15:29;;;;;;;12.27;6.85;;;17.70;70.60;;;;;;5084046;28;20559;-69
2021/05/10 08:17:57;;;;;;;6.75;3.80;;;17.70;71.30;;;;;;5085874;28;20306;-64
2021/05/10 08:20:24;;;;;;;7.95;3.35;;;17.70;71.20;;;;;;5084596;28;20212;-69
2021/05/10 08:22:53;;;;;;;8.75;3.38;;;17.70;70.80;;;;;;5065546;28;20062;-71
2021/05/10 08:25:20;;;;;;;8.00;5.63;;;17.70;70.60;;;;;;5086745;28;20028;-65
2021/05/10 08:27:47;;;;;;;7.63;4.43;;;17.70;70.90;;;;;;5085566;28;20032;-63
2021/05/10 08:30:15;;;;;;;18.20;7.50;;;17.60;71.10;;;;;;5087678;28;20531;-66
2021/05/10 08:32:42;;;;;;;8.93;2.42;;;17.60;72.00;;;;;;5087853;28;20035;-64
2021/05/10 08:35:10;;;;;;;5.15;2.97;;;17.60;72.00;;;;;;5085556;28;20039;-63
2021/05/10 08:37:38;;;;;;;9.82;5.80;;;17.60;71.80;;;;;;5087886;28;20058;-66
2021/05/10 08:40:06;;;;;;;8.32;5.35;;;17.50;71.70;;;;;;5089133;28;20038;-70
2021/05/10 08:42:34;;;;;;;9.55;4.93;;;17.30;72.80;;;;;;5084558;28;20392;-65
2021/05/10 08:45:02;;;;;;;8.77;5.20;;;17.20;73.40;;;;;;5086217;28;20027;-69
2021/05/10 08:47:33;;;;;;;7.05;3.90;;;17.10;73.50;;;;;;5085178;28;20028;-70
2021/05/10 08:50:01;;;;;;;6.88;3.83;;;17.10;73.90;;;;;;5087595;28;20395;-68
2021/05/10 08:52:29;;;;;;;10.13;6.53;;;17.00;74.00;;;;;;5083795;28;20027;-66
2021/05/10 08:54:56;;;;;;;23.88;11.98;;;17.00;74.90;;;;;;5085746;28;20038;-69
2021/05/10 08:57:23;;;;;;;14.02;9.23;;;17.00;76.80;;;;;;5082621;28;20394;-68
2021/05/10 08:59:51;;;;;;;8.88;5.57;;;16.90;75.70;;;;;;5089130;28;20101;-65
2021/05/10 09:02:33;;;;;;;8.82;5.13;;;17.00;75.40;;;;;;5085004;28;20040;-66
2021/05/10 09:05:13;;;;;;;;;;;17.00;76.00;;;;;;5088133;28;20024;-71
2021/05/10 09:07:41;;;;;;;7.88;5.25;;;17.00;76.30;;;;;;5085742;28;20006;-70
2021/05/10 09:10:11;;;;;;;9.02;4.85;;;16.90;77.00;;;;;;5084605;28;20024;-70
2021/05/10 09:12:51;;;;;;;9.23;5.05;;;16.90;77.10;;;;;;5083488;28;20031;-71
2021/05/10 09:15:37;;;;;;;6.68;4.32;;;16.70;77.60;;;;;;5084394;28;20028;-64
2021/05/10 09:18:09;;;;;;;11.82;5.22;;;16.50;77.90;;;;;;5085800;28;20028;-65
2021/05/10 09:20:43;;;;;;;7.20;4.45;;;16.50;78.70;;;;;;5086551;28;20054;-64
2021/05/10 09:23:13;;;;;;;6.63;3.83;;;16.40;79.20;;;;;;5090067;28;20499;-65
2021/05/10 09:25:45;;;;;;;8.65;5.00;;;16.40;78.20;;;;;;5085711;28;20057;-69
2021/05/10 09:28:26;;;;;;;5.55;2.92;;;16.30;78.60;;;;;;5091031;28;20340;-70
2021/05/10 09:30:58;;;;;;;5.65;3.80;;;16.30;78.50;;;;;;5089371;28;20032;-72
2021/05/10 09:33:28;;;;;;;4.65;3.47;;;16.10;78.80;;;;;;5076512;28;20063;-70
2021/05/10 09:36:08;;;;;;;4.60;3.15;;;16.00;79.30;;;;;;5098322;28;20039;-67
2021/05/10 09:38:37;;;;;;;8.10;6.20;;;16.00;79.50;;;;;;5097361;28;20034;-72
2021/05/10 09:41:06;;;;;;;6.22;3.90;;;16.00;79.60;;;;;;5100306;28;20058;-67
2021/05/10 09:43:35;;;;;;;7.05;4.10;;;16.00;79.50;;;;;;5075393;28;20035;-65
2021/05/10 09:46:06;;;;;;;7.05;4.45;;;15.90;79.60;;;;;;5094619;28;20030;-69
2021/05/10 09:48:39;;;;;;;11.65;4.60;;;15.90;79.50;;;;;;5100430;28;20023;-67
2021/05/10 09:51:10;;;;;;;;;;;15.90;79.90;;;;;;5085999;28;20499;-67
2021/05/10 09:53:50;;;;;;;9.52;4.10;;;15.80;80.10;;;;;;5097767;28;20038;-69
2021/05/10 09:56:24;;;;;;;7.05;4.45;;;15.80;80.40;;;;;;5094090;28;20048;-70
2021/05/10 09:58:51;;;;;;;9.52;5.20;;;15.70;80.80;;;;;;5078128;28;20040;-70
2021/05/10 10:01:19;;;;;;;9.18;4.30;;;15.60;81.80;;;;;;5099438;28;20051;-65
2021/05/10 10:03:49;;;;;;;8.20;4.18;;;15.50;81.90;;;;;;5097210;28;20084;-66
2021/05/10 10:06:19;;;;;;;6.45;4.60;;;15.50;81.60;;;;;;5096061;28;20424;-68
2021/05/10 10:08:49;;;;;;;9.35;4.95;;;15.50;81.90;;;;;;5089550;28;20024;-69
2021/05/10 10:11:24;;;;;;;6.93;4.38;;;15.50;82.20;;;;;;5097562;28;20020;-70
2021/05/10 10:13:53;;;;;;;6.15;4.13;;;15.50;82.10;;;;;;5087563;28;20027;-72
2021/05/10 10:16:23;;;;;;;7.00;4.50;;;15.40;82.50;;;;;;5090279;28;20055;-69
2021/05/10 10:18:52;;;;;;;7.85;4.25;;;15.40;82.70;;;;;;5091686;28;20411;-64
2021/05/10 10:21:21;;;;;;;7.63;5.15;;;15.30;83.50;;;;;;5091245;28;20031;-70
2021/05/10 10:23:55;;;;;;;9.82;4.88;;;15.20;83.50;;;;;;5077315;28;20051;-70
2021/05/10 10:26:25;;;;;;;6.57;4.38;;;15.20;84.10;;;;;;5093224;28;20138;-67
2021/05/10 10:28:53;;;;;;;8.07;5.20;;;15.20;84.30;;;;;;5099324;28;20024;-68
2021/05/10 10:31:31;;;;;;;7.68;4.68;;;15.10;84.10;;;;;;5074903;28;20042;-74
2021/05/10 10:34:10;;;;;;;7.03;4.47;;;15.10;85.20;;;;;;5089494;28;20032;-73
2021/05/10 10:36:45;;;;;;;5.75;4.40;;;15.00;84.90;;;;;;5094127;28;20500;-71
2021/05/10 10:39:27;;;;;;;5.55;4.68;;;15.00;85.10;;;;;;5092828;28;20027;-68
2021/05/10 10:42:21;;;;;;;7.20;4.57;;;14.90;85.60;;;;;;5092857;28;20119;-64
2021/05/10 10:44:59;;;;;;;5.15;4.15;;;14.90;86.00;;;;;;5092332;28;20503;-64
2021/05/10 10:48:07;;;;;;;4.65;3.90;;;14.90;85.90;;;;;;5098198;28;20011;-63
2021/05/10 10:51:01;;;;;;;6.25;4.03;;;14.90;86.10;;;;;;5096091;28;20089;-62
2021/05/10 10:53:50;;;;;;;6.43;4.13;;;14.80;86.80;;;;;;5102328;28;20085;-68
2021/05/10 10:56:18;;;;;;;5.82;3.95;;;14.80;86.90;;;;;;5093795;28;20046;-67
2021/05/10 10:58:51;;;;;;;7.20;4.20;;;14.70;86.70;;;;;;5100717;28;20038;-70
2021/05/10 11:01:20;;;;;;;7.60;4.20;;;14.70;87.00;;;;;;5096628;28;20027;-66
2021/05/10 11:03:48;;;;;;;6.53;3.65;;;14.60;87.30;;;;;;5100495;28;20121;-67
2021/05/10 11:06:16;;;;;;;7.55;4.28;;;14.60;87.70;;;;;;5100226;28;20015;-64
2021/05/10 11:08:54;;;;;;;6.22;3.75;;;14.60;88.40;;;;;;5093834;28;20500;-70
2021/05/10 11:11:38;;;;;;;5.25;4.07;;;14.50;88.00;;;;;;5097285;28;20414;-66
2021/05/10 11:14:10;;;;;;;10.48;4.40;;;14.60;88.40;;;;;;5100236;28;20618;-66
2021/05/10 11:16:53;;;;;;;5.50;3.42;;;14.60;88.20;;;;;;5104590;28;20099;-63
2021/05/10 11:19:30;;;;;;;;;;;14.60;88.40;;;;;;5081580;28;20031;-63
2021/05/10 11:21:59;;;;;;;6.10;4.22;;;14.60;89.10;;;;;;5096924;28;19980;-66
2021/05/10 11:24:29;;;;;;;7.65;4.50;;;14.60;88.60;;;;;;5085659;28;20074;-67
2021/05/10 11:26:59;;;;;;;4.43;3.90;;;14.60;88.80;;;;;;5097633;28;20088;-67
2021/05/10 11:29:27;;;;;;;5.63;4.40;;;14.60;89.00;;;;;;5102608;28;20031;-64
2021/05/10 11:31:55;;;;;;;5.05;4.18;;;14.60;89.00;;;;;;5101393;28;20406;-67
2021/05/10 11:34:32;;;;;;;9.70;5.40;;;14.50;89.10;;;;;;5102435;28;20361;-68
2021/05/10 11:37:00;;;;;;;7.45;5.07;;;14.50;89.40;;;;;;5102063;28;20027;-67
2021/05/10 11:39:32;;;;;;;7.15;4.30;;;14.40;89.40;;;;;;5096395;28;20127;-67
2021/05/10 11:42:07;;;;;;;5.95;4.53;;;14.50;89.20;;;;;;5102894;28;20066;-67
2021/05/10 11:44:44;;;;;;;6.30;3.78;;;14.50;89.90;;;;;;5094940;28;20028;-68
2021/05/10 11:47:13;;;;;;;5.13;3.90;;;14.50;89.60;;;;;;5103606;28;20072;-68
2021/05/10 11:49:42;;;;;;;6.32;4.45;;;14.50;89.80;;;;;;5103192;28;20525;-65
2021/05/10 11:52:15;;;;;;;6.88;3.92;;;14.40;89.80;;;;;;5103137;28;20024;-64
2021/05/10 11:54:55;;;;;;;6.57;4.40;;;14.40;89.90;;;;;;5104155;28;20053;-64
2021/05/10 11:57:28;;;;;;;8.27;4.32;;;14.40;89.60;;;;;;5100626;28;20034;-67
2021/05/10 12:02:29;;;;;;;6.30;3.88;;;14.30;89.60;;;;;;5103549;28;20383;-69
2021/05/10 12:05:02;;;;;;;11.40;4.18;;;14.30;89.50;;;;;;5097498;28;20026;-64
2021/05/10 12:07:31;;;;;;;8.25;4.32;;;14.30;89.80;;;;;;5095246;28;20273;-64
2021/05/10 12:10:03;;;;;;;8.65;4.25;;;14.20;90.00;;;;;;5096011;28;20035;-64
2021/05/10 12:12:33;;;;;;;5.00;3.67;;;14.20;90.00;;;;;;5102461;28;20024;-70
2021/05/10 12:15:18;;;;;;;5.38;3.15;;;14.20;90.00;;;;;;5098752;28;20028;-64
2021/05/10 12:17:51;;;;;;;5.45;3.60;;;14.20;90.00;;;;;;5078064;28;20076;-71
2021/05/10 12:20:25;;;;;;;9.32;4.43;;;14.20;90.20;;;;;;5102930;28;20051;-64
2021/05/10 12:22:53;;;;;;;7.35;5.15;;;14.20;90.20;;;;;;5101321;28;20043;-70
2021/05/10 12:25:27;;;;;;;8.68;7.35;;;14.10;90.50;;;;;;5103045;28;20156;-71
2021/05/10 12:28:12;;;;;;;5.22;3.92;;;14.00;90.60;;;;;;5100322;28;20023;-64
2021/05/10 12:30:46;;;;;;;5.70;3.40;;;13.90;90.90;;;;;;5099736;28;20034;-70
2021/05/10 12:33:25;;;;;;;5.32;3.25;;;13.90;91.00;;;;;;5098126;28;20118;-63
2021/05/10 12:35:56;;;;;;;8.07;4.28;;;13.80;90.80;;;;;;5102734;28;20110;-71
2021/05/10 12:38:43;;;;;;;4.88;2.85;;;13.80;90.90;;;;;;5099252;28;20020;-72
2021/05/10 12:41:25;;;;;;;6.30;3.25;;;13.80;91.00;;;;;;5099089;28;20531;-64
2021/05/10 12:43:55;;;;;;;7.32;3.55;;;13.90;90.90;;;;;;5088464;28;20590;-63
2021/05/10 12:46:25;;;;;;;8.77;5.93;;;13.80;91.20;;;;;;5093093;28;20028;-64
2021/05/10 12:48:53;;;;;;;5.50;3.65;;;13.70;91.40;;;;;;5100722;28;20050;-64
2021/05/10 12:51:24;;;;;;;4.25;3.35;;;13.70;91.50;;;;;;5100216;28;20024;-63
2021/05/10 12:54:05;;;;;;;4.47;3.40;;;13.60;91.80;;;;;;5103216;28;20035;-64
2021/05/10 12:56:42;;;;;;;4.25;3.10;;;13.60;91.80;;;;;;5093461;28;20016;-70
2021/05/10 12:59:10;;;;;;;3.45;2.70;;;13.50;91.70;;;;;;5102885;28;20074;-71
2021/05/10 13:01:38;;;;;;;3.30;2.65;;;13.40;91.80;;;;;;5098578;28;20036;-70
2021/05/10 13:04:09;;;;;;;4.50;2.95;;;13.40;91.90;;;;;;5103204;28;20023;-70
2021/05/10 13:06:44;;;;;;;5.07;3.10;;;13.40;92.10;;;;;;5100049;28;20372;-63
2021/05/10 13:09:24;;;;;;;4.18;3.00;;;13.40;92.10;;;;;;5100582;28;20020;-62
2021/05/10 13:11:57;;;;;;;5.68;3.47;;;13.50;91.90;;;;;;5106845;28;20028;-62
2021/05/10 13:14:31;;;;;;;4.65;3.58;;;13.40;92.00;;;;;;5101851;28;20628;-62